sensor_id;sensor_type;location;lat;lon;timestamp;P1;durP1;ratioP1;P2;durP2;ratioP2
25905;SDS011;13713;52.552;13.204;2023-02-07T00:00:12;57.70;;;33.35;;
25905;SDS011;13713;52.552;13.204;2023-02-07T00:02:42;55.13;;;32.85;;
25905;SDS011;13713;52.552;13.204;2023-02-07T00:05:12;52.88;;;31.13;;
25905;SDS011;13713;52.552;13.204;2023-02-07T00:07:38;52.58;;;31.75;;
25905;SDS011;13713;52.552;13.204;2023-02-07T00:10:05;54.65;;;30.90;;
25905;SDS011;13713;52.552;13.204;2023-02-07T00:12:32;56.45;;;32.10;;
25905;SDS011;13713;52.552;13.204;2023-02-07T00:14:58;53.28;;;30.45;;
25905;SDS011;13713;52.552;13.204;2023-02-07T00:17:24;55.33;;;31.27;;
25905;SDS011;13713;52.552;13.204;2023-02-07T00:19:50;56.97;;;31.77;;
25905;SDS011;13713;52.552;13.204;2023-02-07T00:22:15;57.28;;;32.58;;
25905;SDS011;13713;52.552;13.204;2023-02-07T00:24:41;56.22;;;32.05;;
25905;SDS011;13713;52.552;13.204;2023-02-07T00:27:07;51.72;;;30.80;;
25905;SDS011;13713;52.552;13.204;2023-02-07T00:29:33;50.90;;;29.27;;
25905;SDS011;13713;52.552;13.204;2023-02-07T00:31:59;53.72;;;31.58;;
25905;SDS011;13713;52.552;13.204;2023-02-07T00:34:24;52.72;;;32.30;;
25905;SDS011;13713;52.552;13.204;2023-02-07T00:36:50;54.38;;;29.80;;
25905;SDS011;13713;52.552;13.204;2023-02-07T00:39:16;51.63;;;30.05;;
25905;SDS011;13713;52.552;13.204;2023-02-07T00:41:42;55.38;;;31.13;;
25905;SDS011;13713;52.552;13.204;2023-02-07T00:44:09;56.40;;;31.27;;
25905;SDS011;13713;52.552;13.204;2023-02-07T00:46:35;51.08;;;30.17;;
25905;SDS011;13713;52.552;13.204;2023-02-07T00:49:01;50.72;;;30.85;;
25905;SDS011;13713;52.552;13.204;2023-02-07T00:51:28;51.13;;;30.50;;
25905;SDS011;13713;52.552;13.204;2023-02-07T00:53:55;52.50;;;29.83;;
25905;SDS011;13713;52.552;13.204;2023-02-07T00:56:23;52.40;;;30.55;;
25905;SDS011;13713;52.552;13.204;2023-02-07T00:58:50;50.85;;;29.40;;
25905;SDS011;13713;52.552;13.204;2023-02-07T01:01:16;52.55;;;29.65;;
25905;SDS011;13713;52.552;13.204;2023-02-07T01:03:42;54.55;;;31.13;;
25905;SDS011;13713;52.552;13.204;2023-02-07T01:06:09;53.63;;;30.38;;
25905;SDS011;13713;52.552;13.204;2023-02-07T01:08:35;52.08;;;30.40;;
25905;SDS011;13713;52.552;13.204;2023-02-07T01:11:02;56.35;;;31.73;;
25905;SDS011;13713;52.552;13.204;2023-02-07T01:13:29;50.83;;;29.63;;
25905;SDS011;13713;52.552;13.204;2023-02-07T01:15:55;47.47;;;28.23;;
25905;SDS011;13713;52.552;13.204;2023-02-07T01:18:21;50.67;;;29.75;;
25905;SDS011;13713;52.552;13.204;2023-02-07T01:20:47;54.38;;;30.38;;
25905;SDS011;13713;52.552;13.204;2023-02-07T01:23:12;50.75;;;29.58;;
25905;SDS011;13713;52.552;13.204;2023-02-07T01:25:40;49.72;;;29.63;;
25905;SDS011;13713;52.552;13.204;2023-02-07T01:28:08;50.53;;;29.35;;
25905;SDS011;13713;52.552;13.204;2023-02-07T01:30:34;49.67;;;29.48;;
25905;SDS011;13713;52.552;13.204;2023-02-07T01:33:03;52.13;;;30.58;;
25905;SDS011;13713;52.552;13.204;2023-02-07T01:35:30;50.70;;;29.38;;
25905;SDS011;13713;52.552;13.204;2023-02-07T01:37:55;55.90;;;30.73;;
25905;SDS011;13713;52.552;13.204;2023-02-07T01:40:26;51.53;;;29.40;;
25905;SDS011;13713;52.552;13.204;2023-02-07T01:42:53;49.78;;;30.25;;
25905;SDS011;13713;52.552;13.204;2023-02-07T01:45:24;51.83;;;31.02;;
25905;SDS011;13713;52.552;13.204;2023-02-07T01:48:00;49.03;;;29.42;;
25905;SDS011;13713;52.552;13.204;2023-02-07T01:50:37;47.28;;;28.55;;
25905;SDS011;13713;52.552;13.204;2023-02-07T01:53:06;47.60;;;29.23;;
25905;SDS011;13713;52.552;13.204;2023-02-07T01:55:34;52.75;;;29.40;;
25905;SDS011;13713;52.552;13.204;2023-02-07T01:58:02;49.15;;;28.90;;
25905;SDS011;13713;52.552;13.204;2023-02-07T02:00:29;50.40;;;28.55;;
25905;SDS011;13713;52.552;13.204;2023-02-07T02:02:55;46.60;;;26.88;;
25905;SDS011;13713;52.552;13.204;2023-02-07T02:05:21;49.40;;;28.98;;
25905;SDS011;13713;52.552;13.204;2023-02-07T02:07:48;50.38;;;28.80;;
25905;SDS011;13713;52.552;13.204;2023-02-07T02:10:15;48.58;;;28.63;;
25905;SDS011;13713;52.552;13.204;2023-02-07T02:37:54;51.78;;;28.55;;
25905;SDS011;13713;52.552;13.204;2023-02-07T02:40:39;47.90;;;27.55;;
25905;SDS011;13713;52.552;13.204;2023-02-07T02:43:25;45.45;;;26.45;;
25905;SDS011;13713;52.552;13.204;2023-02-07T02:46:03;48.63;;;27.88;;
25905;SDS011;13713;52.552;13.204;2023-02-07T02:48:36;46.33;;;27.52;;
25905;SDS011;13713;52.552;13.204;2023-02-07T02:51:04;48.58;;;27.45;;
25905;SDS011;13713;52.552;13.204;2023-02-07T02:53:30;46.17;;;27.48;;
25905;SDS011;13713;52.552;13.204;2023-02-07T03:15:36;47.53;;;27.23;;
25905;SDS011;13713;52.552;13.204;2023-02-07T03:18:20;45.20;;;26.52;;
25905;SDS011;13713;52.552;13.204;2023-02-07T03:24:00;44.25;;;26.30;;
25905;SDS011;13713;52.552;13.204;2023-02-07T03:26:33;44.08;;;27.27;;
25905;SDS011;13713;52.552;13.204;2023-02-07T03:28:59;44.75;;;26.08;;
25905;SDS011;13713;52.552;13.204;2023-02-07T03:31:27;50.20;;;29.27;;
25905;SDS011;13713;52.552;13.204;2023-02-07T03:33:57;42.08;;;25.30;;
25905;SDS011;13713;52.552;13.204;2023-02-07T03:36:31;46.00;;;27.10;;
25905;SDS011;13713;52.552;13.204;2023-02-07T03:39:03;42.05;;;25.67;;
25905;SDS011;13713;52.552;13.204;2023-02-07T03:42:13;42.78;;;26.88;;
25905;SDS011;13713;52.552;13.204;2023-02-07T03:44:24;44.08;;;26.13;;
25905;SDS011;13713;52.552;13.204;2023-02-07T03:46:52;44.78;;;27.15;;
25905;SDS011;13713;52.552;13.204;2023-02-07T03:49:18;43.42;;;25.58;;
25905;SDS011;13713;52.552;13.204;2023-02-07T03:51:44;45.30;;;26.70;;
25905;SDS011;13713;52.552;13.204;2023-02-07T03:54:10;46.10;;;28.17;;
25905;SDS011;13713;52.552;13.204;2023-02-07T03:56:36;47.55;;;27.25;;
25905;SDS011;13713;52.552;13.204;2023-02-07T03:59:02;47.75;;;27.50;;
25905;SDS011;13713;52.552;13.204;2023-02-07T04:01:28;44.53;;;25.92;;
25905;SDS011;13713;52.552;13.204;2023-02-07T04:03:53;46.25;;;27.13;;
25905;SDS011;13713;52.552;13.204;2023-02-07T04:06:19;46.00;;;27.27;;
25905;SDS011;13713;52.552;13.204;2023-02-07T04:08:45;47.22;;;27.38;;
25905;SDS011;13713;52.552;13.204;2023-02-07T04:11:12;39.92;;;25.10;;
25905;SDS011;13713;52.552;13.204;2023-02-07T04:13:38;45.63;;;26.42;;
25905;SDS011;13713;52.552;13.204;2023-02-07T04:16:04;45.90;;;26.30;;
25905;SDS011;13713;52.552;13.204;2023-02-07T04:18:30;47.85;;;26.92;;
25905;SDS011;13713;52.552;13.204;2023-02-07T04:21:00;48.67;;;26.80;;
25905;SDS011;13713;52.552;13.204;2023-02-07T04:23:29;43.10;;;25.00;;
25905;SDS011;13713;52.552;13.204;2023-02-07T04:25:55;42.78;;;25.50;;
25905;SDS011;13713;52.552;13.204;2023-02-07T04:28:21;45.20;;;25.48;;
25905;SDS011;13713;52.552;13.204;2023-02-07T04:30:46;44.53;;;26.13;;
25905;SDS011;13713;52.552;13.204;2023-02-07T04:33:12;48.08;;;25.42;;
25905;SDS011;13713;52.552;13.204;2023-02-07T04:35:38;41.53;;;25.20;;
25905;SDS011;13713;52.552;13.204;2023-02-07T04:38:04;42.28;;;25.67;;
25905;SDS011;13713;52.552;13.204;2023-02-07T04:40:30;42.00;;;25.40;;
25905;SDS011;13713;52.552;13.204;2023-02-07T04:42:55;44.63;;;26.02;;
25905;SDS011;13713;52.552;13.204;2023-02-07T04:45:21;41.90;;;25.20;;
25905;SDS011;13713;52.552;13.204;2023-02-07T04:47:46;42.92;;;26.02;;
25905;SDS011;13713;52.552;13.204;2023-02-07T04:50:12;41.03;;;24.98;;
25905;SDS011;13713;52.552;13.204;2023-02-07T04:52:38;42.25;;;25.60;;
25905;SDS011;13713;52.552;13.204;2023-02-07T04:55:05;42.50;;;24.85;;
25905;SDS011;13713;52.552;13.204;2023-02-07T04:57:32;41.78;;;24.90;;
25905;SDS011;13713;52.552;13.204;2023-02-07T04:59:58;43.47;;;25.40;;
25905;SDS011;13713;52.552;13.204;2023-02-07T05:02:24;44.38;;;25.83;;
25905;SDS011;13713;52.552;13.204;2023-02-07T05:04:50;41.38;;;25.52;;
25905;SDS011;13713;52.552;13.204;2023-02-07T05:07:15;43.67;;;25.23;;
25905;SDS011;13713;52.552;13.204;2023-02-07T05:09:41;42.25;;;25.20;;
25905;SDS011;13713;52.552;13.204;2023-02-07T05:12:07;42.80;;;25.50;;
25905;SDS011;13713;52.552;13.204;2023-02-07T05:14:32;43.05;;;26.02;;
25905;SDS011;13713;52.552;13.204;2023-02-07T05:16:58;43.78;;;25.75;;
25905;SDS011;13713;52.552;13.204;2023-02-07T05:19:24;39.70;;;24.80;;
25905;SDS011;13713;52.552;13.204;2023-02-07T05:21:49;44.90;;;25.27;;
25905;SDS011;13713;52.552;13.204;2023-02-07T05:24:15;44.03;;;24.88;;
25905;SDS011;13713;52.552;13.204;2023-02-07T05:26:41;43.30;;;24.63;;
25905;SDS011;13713;52.552;13.204;2023-02-07T05:29:06;42.83;;;26.80;;
25905;SDS011;13713;52.552;13.204;2023-02-07T05:31:32;39.85;;;25.33;;
25905;SDS011;13713;52.552;13.204;2023-02-07T05:34:16;44.72;;;25.23;;
25905;SDS011;13713;52.552;13.204;2023-02-07T05:36:41;39.25;;;24.67;;
25905;SDS011;13713;52.552;13.204;2023-02-07T05:39:07;42.15;;;25.05;;
25905;SDS011;13713;52.552;13.204;2023-02-07T05:41:33;39.58;;;25.25;;
25905;SDS011;13713;52.552;13.204;2023-02-07T05:44:00;39.80;;;25.02;;
25905;SDS011;13713;52.552;13.204;2023-02-07T05:46:25;43.60;;;26.65;;
25905;SDS011;13713;52.552;13.204;2023-02-07T05:48:51;42.53;;;26.20;;
25905;SDS011;13713;52.552;13.204;2023-02-07T05:51:17;40.55;;;24.90;;
25905;SDS011;13713;52.552;13.204;2023-02-07T05:53:43;44.78;;;25.38;;
25905;SDS011;13713;52.552;13.204;2023-02-07T05:56:09;42.13;;;25.75;;
25905;SDS011;13713;52.552;13.204;2023-02-07T05:58:34;41.15;;;24.67;;
25905;SDS011;13713;52.552;13.204;2023-02-07T06:01:00;42.83;;;25.42;;
25905;SDS011;13713;52.552;13.204;2023-02-07T06:03:26;43.00;;;25.88;;
25905;SDS011;13713;52.552;13.204;2023-02-07T06:05:52;39.00;;;24.00;;
25905;SDS011;13713;52.552;13.204;2023-02-07T06:08:18;42.35;;;25.23;;
25905;SDS011;13713;52.552;13.204;2023-02-07T06:10:43;40.92;;;25.70;;
25905;SDS011;13713;52.552;13.204;2023-02-07T06:13:11;40.50;;;24.65;;
25905;SDS011;13713;52.552;13.204;2023-02-07T06:15:37;41.63;;;24.92;;
25905;SDS011;13713;52.552;13.204;2023-02-07T06:18:03;40.30;;;24.25;;
25905;SDS011;13713;52.552;13.204;2023-02-07T06:20:28;42.67;;;26.15;;
25905;SDS011;13713;52.552;13.204;2023-02-07T06:22:54;43.10;;;25.73;;
25905;SDS011;13713;52.552;13.204;2023-02-07T06:25:20;43.50;;;26.73;;
25905;SDS011;13713;52.552;13.204;2023-02-07T06:27:45;41.25;;;24.88;;
25905;SDS011;13713;52.552;13.204;2023-02-07T06:30:11;41.83;;;25.73;;
25905;SDS011;13713;52.552;13.204;2023-02-07T06:32:37;44.35;;;26.33;;
25905;SDS011;13713;52.552;13.204;2023-02-07T06:35:03;57.28;;;29.70;;
25905;SDS011;13713;52.552;13.204;2023-02-07T06:37:30;85.72;;;39.28;;
25905;SDS011;13713;52.552;13.204;2023-02-07T06:39:56;88.82;;;40.13;;
25905;SDS011;13713;52.552;13.204;2023-02-07T06:42:21;104.00;;;45.97;;
25905;SDS011;13713;52.552;13.204;2023-02-07T06:44:47;98.07;;;41.90;;
25905;SDS011;13713;52.552;13.204;2023-02-07T06:47:13;152.68;;;57.53;;
25905;SDS011;13713;52.552;13.204;2023-02-07T06:49:38;158.68;;;66.20;;
25905;SDS011;13713;52.552;13.204;2023-02-07T06:52:04;256.15;;;98.00;;
25905;SDS011;13713;52.552;13.204;2023-02-07T06:54:29;275.40;;;101.68;;
25905;SDS011;13713;52.552;13.204;2023-02-07T06:56:55;210.57;;;82.93;;
25905;SDS011;13713;52.552;13.204;2023-02-07T06:59:21;229.82;;;88.78;;
25905;SDS011;13713;52.552;13.204;2023-02-07T07:01:46;222.57;;;91.50;;
25905;SDS011;13713;52.552;13.204;2023-02-07T07:04:12;361.23;;;133.38;;
25905;SDS011;13713;52.552;13.204;2023-02-07T07:06:38;342.67;;;133.77;;
25905;SDS011;13713;52.552;13.204;2023-02-07T07:09:03;310.20;;;122.22;;
25905;SDS011;13713;52.552;13.204;2023-02-07T07:11:29;323.67;;;129.15;;
25905;SDS011;13713;52.552;13.204;2023-02-07T07:13:55;370.92;;;146.07;;
25905;SDS011;13713;52.552;13.204;2023-02-07T07:16:21;432.75;;;176.05;;
25905;SDS011;13713;52.552;13.204;2023-02-07T07:18:46;464.65;;;181.18;;
25905;SDS011;13713;52.552;13.204;2023-02-07T07:21:12;495.23;;;195.13;;
25905;SDS011;13713;52.552;13.204;2023-02-07T07:23:38;332.20;;;136.35;;
25905;SDS011;13713;52.552;13.204;2023-02-07T07:26:04;345.33;;;144.70;;
25905;SDS011;13713;52.552;13.204;2023-02-07T07:28:30;344.10;;;150.75;;
25905;SDS011;13713;52.552;13.204;2023-02-07T07:31:00;454.40;;;183.70;;
25905;SDS011;13713;52.552;13.204;2023-02-07T07:33:31;428.75;;;168.68;;
25905;SDS011;13713;52.552;13.204;2023-02-07T07:35:58;461.05;;;186.13;;
25905;SDS011;13713;52.552;13.204;2023-02-07T07:38:24;467.35;;;195.10;;
25905;SDS011;13713;52.552;13.204;2023-02-07T07:40:50;510.70;;;206.02;;
25905;SDS011;13713;52.552;13.204;2023-02-07T07:43:16;490.25;;;203.85;;
25905;SDS011;13713;52.552;13.204;2023-02-07T07:45:44;447.65;;;184.52;;
25905;SDS011;13713;52.552;13.204;2023-02-07T07:48:14;510.70;;;214.57;;
25905;SDS011;13713;52.552;13.204;2023-02-07T07:50:40;597.40;;;263.27;;
25905;SDS011;13713;52.552;13.204;2023-02-07T07:53:05;539.22;;;235.73;;
25905;SDS011;13713;52.552;13.204;2023-02-07T07:55:31;549.33;;;237.20;;
25905;SDS011;13713;52.552;13.204;2023-02-07T07:57:56;626.65;;;277.75;;
25905;SDS011;13713;52.552;13.204;2023-02-07T08:00:22;631.60;;;279.95;;
25905;SDS011;13713;52.552;13.204;2023-02-07T08:02:48;618.97;;;284.75;;
25905;SDS011;13713;52.552;13.204;2023-02-07T08:05:14;571.22;;;256.25;;
25905;SDS011;13713;52.552;13.204;2023-02-07T08:07:40;585.03;;;268.88;;
25905;SDS011;13713;52.552;13.204;2023-02-07T08:10:06;586.80;;;260.33;;
25905;SDS011;13713;52.552;13.204;2023-02-07T08:12:32;604.60;;;277.13;;
25905;SDS011;13713;52.552;13.204;2023-02-07T08:14:58;593.13;;;278.13;;
25905;SDS011;13713;52.552;13.204;2023-02-07T08:17:23;636.83;;;295.27;;
25905;SDS011;13713;52.552;13.204;2023-02-07T08:19:49;637.05;;;295.60;;
25905;SDS011;13713;52.552;13.204;2023-02-07T08:22:15;620.20;;;285.90;;
25905;SDS011;13713;52.552;13.204;2023-02-07T08:24:41;621.80;;;295.52;;
25905;SDS011;13713;52.552;13.204;2023-02-07T08:27:07;627.20;;;297.83;;
25905;SDS011;13713;52.552;13.204;2023-02-07T08:29:33;633.72;;;306.15;;
25905;SDS011;13713;52.552;13.204;2023-02-07T08:31:58;627.15;;;300.05;;
25905;SDS011;13713;52.552;13.204;2023-02-07T08:34:24;628.50;;;297.67;;
25905;SDS011;13713;52.552;13.204;2023-02-07T08:36:53;605.83;;;285.55;;
25905;SDS011;13713;52.552;13.204;2023-02-07T08:39:19;667.40;;;320.88;;
25905;SDS011;13713;52.552;13.204;2023-02-07T08:41:45;677.75;;;324.10;;
25905;SDS011;13713;52.552;13.204;2023-02-07T08:44:11;674.97;;;323.70;;
25905;SDS011;13713;52.552;13.204;2023-02-07T08:46:37;676.40;;;332.70;;
25905;SDS011;13713;52.552;13.204;2023-02-07T08:49:02;678.58;;;328.92;;
25905;SDS011;13713;52.552;13.204;2023-02-07T08:51:28;694.13;;;331.85;;
25905;SDS011;13713;52.552;13.204;2023-02-07T08:53:54;734.17;;;352.25;;
25905;SDS011;13713;52.552;13.204;2023-02-07T08:56:19;728.00;;;355.80;;
25905;SDS011;13713;52.552;13.204;2023-02-07T08:58:45;717.70;;;344.10;;
25905;SDS011;13713;52.552;13.204;2023-02-07T09:01:11;716.42;;;353.92;;
25905;SDS011;13713;52.552;13.204;2023-02-07T09:03:37;708.10;;;346.02;;
25905;SDS011;13713;52.552;13.204;2023-02-07T09:06:03;750.63;;;363.77;;
25905;SDS011;13713;52.552;13.204;2023-02-07T09:08:29;726.30;;;348.65;;
25905;SDS011;13713;52.552;13.204;2023-02-07T09:10:55;733.20;;;361.27;;
25905;SDS011;13713;52.552;13.204;2023-02-07T09:13:21;762.10;;;380.02;;
25905;SDS011;13713;52.552;13.204;2023-02-07T09:15:51;791.28;;;398.25;;
25905;SDS011;13713;52.552;13.204;2023-02-07T09:18:21;798.03;;;394.75;;
25905;SDS011;13713;52.552;13.204;2023-02-07T09:20:49;816.75;;;411.13;;
25905;SDS011;13713;52.552;13.204;2023-02-07T09:23:14;827.85;;;406.70;;
25905;SDS011;13713;52.552;13.204;2023-02-07T09:25:47;777.53;;;390.77;;
25905;SDS011;13713;52.552;13.204;2023-02-07T09:28:14;877.55;;;434.55;;
25905;SDS011;13713;52.552;13.204;2023-02-07T09:30:44;833.00;;;429.05;;
25905;SDS011;13713;52.552;13.204;2023-02-07T09:33:10;796.42;;;403.83;;
25905;SDS011;13713;52.552;13.204;2023-02-07T09:35:38;760.63;;;392.15;;
25905;SDS011;13713;52.552;13.204;2023-02-07T09:38:06;876.92;;;444.98;;
25905;SDS011;13713;52.552;13.204;2023-02-07T09:40:33;895.78;;;454.20;;
25905;SDS011;13713;52.552;13.204;2023-02-07T09:45:39;790.95;;;409.27;;
25905;SDS011;13713;52.552;13.204;2023-02-07T09:48:14;802.60;;;409.90;;
25905;SDS011;13713;52.552;13.204;2023-02-07T09:50:51;840.70;;;432.70;;
25905;SDS011;13713;52.552;13.204;2023-02-07T09:56:24;818.60;;;416.92;;
25905;SDS011;13713;52.552;13.204;2023-02-07T09:59:03;932.83;;;472.33;;
25905;SDS011;13713;52.552;13.204;2023-02-07T10:01:45;955.22;;;480.80;;
25905;SDS011;13713;52.552;13.204;2023-02-07T10:06:51;881.50;;;459.05;;
25905;SDS011;13713;52.552;13.204;2023-02-07T10:15:21;915.38;;;466.42;;
25905;SDS011;13713;52.552;13.204;2023-02-07T10:18:22;973.95;;;499.02;;
25905;SDS011;13713;52.552;13.204;2023-02-07T10:24:17;995.45;;;509.10;;
25905;SDS011;13713;52.552;13.204;2023-02-07T10:26:52;980.35;;;506.17;;
25905;SDS011;13713;52.552;13.204;2023-02-07T10:31:55;345.50;;;161.15;;
25905;SDS011;13713;52.552;13.204;2023-02-07T10:34:30;303.85;;;140.52;;
25905;SDS011;13713;52.552;13.204;2023-02-07T10:37:00;402.35;;;175.27;;
25905;SDS011;13713;52.552;13.204;2023-02-07T10:39:37;458.38;;;208.55;;
25905;SDS011;13713;52.552;13.204;2023-02-07T10:42:09;554.17;;;266.20;;
25905;SDS011;13713;52.552;13.204;2023-02-07T10:44:39;584.35;;;282.23;;
25905;SDS011;13713;52.552;13.204;2023-02-07T10:47:05;657.00;;;312.35;;
25905;SDS011;13713;52.552;13.204;2023-02-07T10:49:35;684.22;;;335.27;;
25905;SDS011;13713;52.552;13.204;2023-02-07T10:52:05;707.95;;;352.50;;
25905;SDS011;13713;52.552;13.204;2023-02-07T10:54:51;775.50;;;380.17;;
25905;SDS011;13713;52.552;13.204;2023-02-07T10:57:19;787.00;;;392.00;;
25905;SDS011;13713;52.552;13.204;2023-02-07T10:59:45;821.60;;;405.25;;
25905;SDS011;13713;52.552;13.204;2023-02-07T11:04:52;821.17;;;408.20;;
25905;SDS011;13713;52.552;13.204;2023-02-07T11:07:19;746.25;;;371.65;;
25905;SDS011;13713;52.552;13.204;2023-02-07T11:09:45;821.08;;;403.08;;
25905;SDS011;13713;52.552;13.204;2023-02-07T11:12:21;809.83;;;409.38;;
25905;SDS011;13713;52.552;13.204;2023-02-07T11:15:03;776.58;;;383.77;;
25905;SDS011;13713;52.552;13.204;2023-02-07T11:17:32;856.95;;;429.95;;
25905;SDS011;13713;52.552;13.204;2023-02-07T11:20:05;852.13;;;427.77;;
25905;SDS011;13713;52.552;13.204;2023-02-07T11:22:33;882.65;;;443.25;;
25905;SDS011;13713;52.552;13.204;2023-02-07T11:25:00;889.97;;;454.83;;
25905;SDS011;13713;52.552;13.204;2023-02-07T11:27:34;995.83;;;485.30;;
25905;SDS011;13713;52.552;13.204;2023-02-07T11:30:07;964.85;;;478.20;;
25905;SDS011;13713;52.552;13.204;2023-02-07T11:32:52;934.60;;;467.58;;
25905;SDS011;13713;52.552;13.204;2023-02-07T11:35:19;807.45;;;413.35;;
25905;SDS011;13713;52.552;13.204;2023-02-07T11:37:46;942.40;;;479.50;;
25905;SDS011;13713;52.552;13.204;2023-02-07T11:45:35;955.00;;;474.63;;
25905;SDS011;13713;52.552;13.204;2023-02-07T11:48:04;942.42;;;474.80;;
25905;SDS011;13713;52.552;13.204;2023-02-07T11:50:34;1013.47;;;513.13;;
25905;SDS011;13713;52.552;13.204;2023-02-07T11:53:04;999.17;;;510.42;;
25905;SDS011;13713;52.552;13.204;2023-02-07T11:55:33;1027.43;;;517.80;;
25905;SDS011;13713;52.552;13.204;2023-02-07T11:58:07;991.78;;;504.27;;
25905;SDS011;13713;52.552;13.204;2023-02-07T12:00:52;1002.50;;;518.63;;
25905;SDS011;13713;52.552;13.204;2023-02-07T12:03:25;1008.10;;;513.60;;
25905;SDS011;13713;52.552;13.204;2023-02-07T12:05:55;1088.00;;;547.20;;
25905;SDS011;13713;52.552;13.204;2023-02-07T12:08:24;1075.90;;;551.72;;
25905;SDS011;13713;52.552;13.204;2023-02-07T12:11:00;1050.80;;;537.38;;
25905;SDS011;13713;52.552;13.204;2023-02-07T12:13:38;1052.28;;;541.47;;
25905;SDS011;13713;52.552;13.204;2023-02-07T12:16:29;1048.38;;;538.03;;
25905;SDS011;13713;52.552;13.204;2023-02-07T12:19:15;1008.08;;;532.50;;
25905;SDS011;13713;52.552;13.204;2023-02-07T12:22:06;1068.13;;;551.38;;
25905;SDS011;13713;52.552;13.204;2023-02-07T12:24:41;1068.25;;;552.25;;
25905;SDS011;13713;52.552;13.204;2023-02-07T12:27:13;1306.10;;;626.42;;
25905;SDS011;13713;52.552;13.204;2023-02-07T12:35:27;1086.85;;;567.95;;
25905;SDS011;13713;52.552;13.204;2023-02-07T12:40:50;1044.00;;;553.72;;
25905;SDS011;13713;52.552;13.204;2023-02-07T12:43:32;1088.13;;;572.55;;
25905;SDS011;13713;52.552;13.204;2023-02-07T12:51:48;1081.18;;;575.13;;
25905;SDS011;13713;52.552;13.204;2023-02-07T12:57:15;1038.10;;;545.83;;
25905;SDS011;13713;52.552;13.204;2023-02-07T13:00:04;1044.13;;;560.53;;
25905;SDS011;13713;52.552;13.204;2023-02-07T13:10:45;982.40;;;539.55;;
25905;SDS011;13713;52.552;13.204;2023-02-07T13:19:10;1069.20;;;567.00;;
25905;SDS011;13713;52.552;13.204;2023-02-07T13:22:04;1098.97;;;585.22;;
25905;SDS011;13713;52.552;13.204;2023-02-07T13:24:36;1093.00;;;583.65;;
25905;SDS011;13713;52.552;13.204;2023-02-07T13:27:06;1092.68;;;580.92;;
25905;SDS011;13713;52.552;13.204;2023-02-07T13:29:45;1090.20;;;583.55;;
25905;SDS011;13713;52.552;13.204;2023-02-07T13:32:15;1093.25;;;586.78;;
25905;SDS011;13713;52.552;13.204;2023-02-07T13:35:03;1113.90;;;587.28;;
25905;SDS011;13713;52.552;13.204;2023-02-07T13:40:53;1112.63;;;591.67;;
25905;SDS011;13713;52.552;13.204;2023-02-07T13:43:37;1080.82;;;576.50;;
25905;SDS011;13713;52.552;13.204;2023-02-07T13:48:57;1042.35;;;571.50;;
25905;SDS011;13713;52.552;13.204;2023-02-07T13:57:00;1155.70;;;602.88;;
25905;SDS011;13713;52.552;13.204;2023-02-07T14:02:42;1116.55;;;594.75;;
25905;SDS011;13713;52.552;13.204;2023-02-07T14:05:19;1104.18;;;585.30;;
25905;SDS011;13713;52.552;13.204;2023-02-07T14:07:58;1121.85;;;594.22;;
25905;SDS011;13713;52.552;13.204;2023-02-07T14:10:48;1120.10;;;597.70;;
25905;SDS011;13713;52.552;13.204;2023-02-07T14:13:22;1178.82;;;612.35;;
25905;SDS011;13713;52.552;13.204;2023-02-07T14:15:53;1159.97;;;609.13;;
25905;SDS011;13713;52.552;13.204;2023-02-07T14:18:37;1076.18;;;583.78;;
25905;SDS011;13713;52.552;13.204;2023-02-07T14:31:56;1118.60;;;601.80;;
25905;SDS011;13713;52.552;13.204;2023-02-07T14:34:30;1128.18;;;603.75;;
25905;SDS011;13713;52.552;13.204;2023-02-07T14:37:20;1133.65;;;610.28;;
25905;SDS011;13713;52.552;13.204;2023-02-07T14:45:30;1151.63;;;612.92;;
25905;SDS011;13713;52.552;13.204;2023-02-07T14:47:59;1151.65;;;624.78;;
25905;SDS011;13713;52.552;13.204;2023-02-07T14:50:26;1136.90;;;617.38;;
25905;SDS011;13713;52.552;13.204;2023-02-07T14:52:59;1205.10;;;632.60;;
25905;SDS011;13713;52.552;13.204;2023-02-07T14:58:24;1154.82;;;619.85;;
25905;SDS011;13713;52.552;13.204;2023-02-07T15:00:52;1197.03;;;639.50;;
25905;SDS011;13713;52.552;13.204;2023-02-07T15:03:22;1153.50;;;619.55;;
25905;SDS011;13713;52.552;13.204;2023-02-07T15:05:52;1159.30;;;615.90;;
25905;SDS011;13713;52.552;13.204;2023-02-07T15:10:56;1019.63;;;574.28;;
25905;SDS011;13713;52.552;13.204;2023-02-07T15:13:30;1018.03;;;574.13;;
25905;SDS011;13713;52.552;13.204;2023-02-07T15:16:00;962.75;;;552.80;;
25905;SDS011;13713;52.552;13.204;2023-02-07T15:18:34;979.78;;;577.88;;
25905;SDS011;13713;52.552;13.204;2023-02-07T15:21:10;714.58;;;409.05;;
25905;SDS011;13713;52.552;13.204;2023-02-07T15:23:43;476.63;;;252.20;;
25905;SDS011;13713;52.552;13.204;2023-02-07T15:26:19;480.50;;;257.60;;
25905;SDS011;13713;52.552;13.204;2023-02-07T15:28:45;646.25;;;356.33;;
25905;SDS011;13713;52.552;13.204;2023-02-07T15:31:11;722.83;;;407.20;;
25905;SDS011;13713;52.552;13.204;2023-02-07T15:33:40;644.25;;;369.95;;
25905;SDS011;13713;52.552;13.204;2023-02-07T15:38:54;677.47;;;378.95;;
25905;SDS011;13713;52.552;13.204;2023-02-07T15:41:21;640.38;;;361.45;;
25905;SDS011;13713;52.552;13.204;2023-02-07T15:43:57;638.75;;;365.08;;
25905;SDS011;13713;52.552;13.204;2023-02-07T15:46:25;663.70;;;375.25;;
25905;SDS011;13713;52.552;13.204;2023-02-07T15:49:06;651.22;;;365.58;;
25905;SDS011;13713;52.552;13.204;2023-02-07T15:51:35;644.40;;;358.83;;
25905;SDS011;13713;52.552;13.204;2023-02-07T15:54:05;639.58;;;357.35;;
25905;SDS011;13713;52.552;13.204;2023-02-07T15:56:31;638.50;;;355.27;;
25905;SDS011;13713;52.552;13.204;2023-02-07T15:58:58;626.80;;;355.15;;
25905;SDS011;13713;52.552;13.204;2023-02-07T16:01:27;612.08;;;342.85;;
25905;SDS011;13713;52.552;13.204;2023-02-07T16:03:54;608.33;;;342.55;;
25905;SDS011;13713;52.552;13.204;2023-02-07T16:06:27;590.67;;;330.13;;
25905;SDS011;13713;52.552;13.204;2023-02-07T16:08:55;575.35;;;323.10;;
25905;SDS011;13713;52.552;13.204;2023-02-07T16:13:52;580.78;;;326.52;;
25905;SDS011;13713;52.552;13.204;2023-02-07T16:24:39;581.55;;;325.92;;
25905;SDS011;13713;52.552;13.204;2023-02-07T16:27:08;579.72;;;322.17;;
25905;SDS011;13713;52.552;13.204;2023-02-07T16:29:40;569.03;;;320.38;;
25905;SDS011;13713;52.552;13.204;2023-02-07T16:32:08;576.67;;;324.50;;
25905;SDS011;13713;52.552;13.204;2023-02-07T16:34:37;566.35;;;314.90;;
25905;SDS011;13713;52.552;13.204;2023-02-07T16:37:03;565.70;;;317.67;;
25905;SDS011;13713;52.552;13.204;2023-02-07T16:39:29;559.50;;;312.50;;
25905;SDS011;13713;52.552;13.204;2023-02-07T16:41:56;558.92;;;311.00;;